Time,TemperatureF,DewpointF,PressureIn,WindDirection,WindDirectionDegrees,WindSpeedMPH,WindSpeedGustMPH,Humidity,HourlyPrecipIn,Conditions,Clouds,dailyrainin,SoftwareType,DateUTC
2013-08-17 00:07:00,60.8,58.8,29.96,NNE,22,0.0,-999.0,93,-99.99,,,0.00,Acu-Link.com,2013-08-17 04:07:00,
2013-08-17 00:23:00,60.8,58.8,29.96,NNE,22,0.0,-999.0,93,-99.99,,,0.00,Acu-Link.com,2013-08-17 04:23:00,
2013-08-17 00:38:00,60.8,58.8,29.96,SSW,202,0.0,-999.0,93,-99.99,,,0.00,Acu-Link.com,2013-08-17 04:38:00,
2013-08-17 00:53:00,60.8,58.8,29.96,NNE,22,0.0,-999.0,93,-99.99,,,0.00,Acu-Link.com,2013-08-17 04:53:00,
2013-08-17 01:08:00,60.8,59.1,29.95,North,0,0.0,-999.0,94,-99.99,,,0.00,Acu-Link.com,2013-08-17 05:08:00,
2013-08-17 01:23:00,60.8,59.1,29.95,NNW,337,0.0,-999.0,94,-99.99,,,0.00,Acu-Link.com,2013-08-17 05:23:00,
2013-08-17 01:38:00,60.8,59.1,29.95,NNW,337,0.0,-999.0,94,-99.99,,,0.00,Acu-Link.com,2013-08-17 05:38:00,
2013-08-17 01:53:00,60.8,59.1,29.94,NNE,22,0.0,-999.0,94,-99.99,,,0.00,Acu-Link.com,2013-08-17 05:53:00,
2013-08-17 02:09:00,60.8,59.1,29.95,West,270,0.0,-999.0,94,-99.99,,,0.00,Acu-Link.com,2013-08-17 06:09:00,
2013-08-17 02:24:00,60.8,58.8,29.95,North,0,0.0,-999.0,93,-99.99,,,0.00,Acu-Link.com,2013-08-17 06:24:00,
2013-08-17 02:39:00,60.8,58.8,29.94,ENE,67,1.6,-999.0,93,-99.99,,,0.00,Acu-Link.com,2013-08-17 06:39:00,
2013-08-17 02:54:00,60.8,58.2,29.95,WNW,292,2.7,-999.0,91,-99.99,,,0.00,Acu-Link.com,2013-08-17 06:54:00,
2013-08-17 03:09:00,60.8,58.5,29.95,SW,225,2.0,-999.0,92,-99.99,,,0.01,Acu-Link.com,2013-08-17 07:09:00,
2013-08-17 03:25:00,60.8,58.8,29.95,NNE,22,0.0,-999.0,93,-99.99,,,0.01,Acu-Link.com,2013-08-17 07:25:00,
2013-08-17 03:40:00,60.8,58.8,29.95,NE,45,2.0,-999.0,93,-99.99,,,0.01,Acu-Link.com,2013-08-17 07:40:00,
2013-08-17 03:55:00,60.8,59.1,29.94,West,270,0.0,-999.0,94,-99.99,,,0.01,Acu-Link.com,2013-08-17 07:55:00,
2013-08-17 04:11:00,60.8,59.1,29.94,WNW,292,1.1,-999.0,94,-99.99,,,0.01,Acu-Link.com,2013-08-17 08:11:00,
2013-08-17 04:26:00,60.8,59.1,29.94,South,180,1.1,-999.0,94,-99.99,,,0.01,Acu-Link.com,2013-08-17 08:26:00,
2013-08-17 04:43:00,60.8,59.1,29.94,NE,45,1.1,-999.0,94,-99.99,,,0.01,Acu-Link.com,2013-08-17 08:43:00,
2013-08-17 04:58:00,60.8,59.1,29.94,SSW,202,1.1,-999.0,94,-99.99,,,0.01,Acu-Link.com,2013-08-17 08:58:00,
2013-08-17 05:13:00,60.8,59.1,29.94,NE,45,0.0,-999.0,94,-99.99,,,0.02,Acu-Link.com,2013-08-17 09:13:00,
2013-08-17 05:28:00,60.8,59.1,29.94,NE,45,1.1,-999.0,94,-99.99,,,0.02,Acu-Link.com,2013-08-17 09:28:00,
2013-08-17 05:43:00,60.8,59.1,29.94,North,0,2.0,-999.0,94,-99.99,,,0.02,Acu-Link.com,2013-08-17 09:43:00,
2013-08-17 05:58:00,60.8,59.1,29.95,East,90,1.6,-999.0,94,-99.99,,,0.02,Acu-Link.com,2013-08-17 09:58:00,
2013-08-17 06:13:00,60.8,59.1,29.95,NNE,22,2.0,-999.0,94,-99.99,,,0.02,Acu-Link.com,2013-08-17 10:13:00,
2013-08-17 06:29:00,60.8,59.1,29.95,North,0,1.6,-999.0,94,-99.99,,,0.02,Acu-Link.com,2013-08-17 10:29:00,
2013-08-17 06:44:00,60.8,59.1,29.95,NW,315,1.1,-999.0,94,-99.99,,,0.02,Acu-Link.com,2013-08-17 10:44:00,
2013-08-17 06:59:00,60.8,59.1,29.96,West,270,1.6,-999.0,94,-99.99,,,0.02,Acu-Link.com,2013-08-17 10:59:00,
2013-08-17 07:14:00,60.8,59.1,29.96,NW,315,3.1,-999.0,94,-99.99,,,0.02,Acu-Link.com,2013-08-17 11:14:00,
2013-08-17 07:29:00,60.8,58.8,29.96,NE,45,3.6,-999.0,93,-99.99,,,0.02,Acu-Link.com,2013-08-17 11:29:00,
2013-08-17 07:45:00,60.8,58.8,29.97,NNW,337,0.0,-999.0,93,-99.99,,,0.02,Acu-Link.com,2013-08-17 11:45:00,
2013-08-17 08:00:00,62.6,60.2,29.97,North,0,3.6,-999.0,92,-99.99,,,0.02,Acu-Link.com,2013-08-17 12:00:00,
2013-08-17 08:15:00,62.6,59.9,29.96,ESE,112,1.6,-999.0,91,-99.99,,,0.02,Acu-Link.com,2013-08-17 12:15:00,
2013-08-17 08:31:00,62.6,59.9,29.97,West,270,2.7,-999.0,91,-99.99,,,0.02,Acu-Link.com,2013-08-17 12:31:00,
2013-08-17 08:46:00,62.6,60.2,29.97,NNW,337,4.7,-999.0,92,-99.99,,,0.02,Acu-Link.com,2013-08-17 12:46:00,
2013-08-17 09:01:00,62.6,60.2,29.98,WNW,292,2.7,-999.0,92,-99.99,,,0.04,Acu-Link.com,2013-08-17 13:01:00,
2013-08-17 09:17:00,64.4,61.1,29.97,NW,315,2.7,-999.0,89,-99.99,,,0.04,Acu-Link.com,2013-08-17 13:17:00,
2013-08-17 09:32:00,64.4,60.8,29.97,West,270,1.6,-999.0,88,-99.99,,,0.04,Acu-Link.com,2013-08-17 13:32:00,
2013-08-17 09:47:00,64.4,60.4,29.98,ESE,112,3.1,-999.0,87,-99.99,,,0.04,Acu-Link.com,2013-08-17 13:47:00,
2013-08-17 10:02:00,64.4,60.4,29.98,NNW,337,3.1,-999.0,87,-99.99,,,0.04,Acu-Link.com,2013-08-17 14:02:00,
2013-08-17 10:17:00,64.4,60.4,29.97,North,0,2.0,-999.0,87,-99.99,,,0.04,Acu-Link.com,2013-08-17 14:17:00,
2013-08-17 10:33:00,68.0,63.0,29.98,NNW,337,4.0,-999.0,84,-99.99,,,0.04,Acu-Link.com,2013-08-17 14:33:00,
2013-08-17 10:48:00,68.0,62.3,29.98,South,180,1.6,-999.0,82,-99.99,,,0.04,Acu-Link.com,2013-08-17 14:48:00,
2013-08-17 11:03:00,68.0,62.3,29.98,WNW,292,2.0,-999.0,82,-99.99,,,0.04,Acu-Link.com,2013-08-17 15:03:00,
2013-08-17 11:18:00,64.4,60.1,29.99,ESE,112,1.6,-999.0,86,-99.99,,,0.04,Acu-Link.com,2013-08-17 15:18:00,
2013-08-17 11:34:00,66.2,61.6,29.98,ESE,112,7.8,-999.0,85,-99.99,,,0.04,Acu-Link.com,2013-08-17 15:34:00,
2013-08-17 11:49:00,66.2,61.6,29.98,NE,45,2.7,-999.0,85,-99.99,,,0.04,Acu-Link.com,2013-08-17 15:49:00,
2013-08-17 12:04:00,66.2,61.6,29.98,NW,315,2.7,-999.0,85,-99.99,,,0.04,Acu-Link.com,2013-08-17 16:04:00,
2013-08-17 12:20:00,66.2,62.2,29.98,South,180,2.0,-999.0,87,-99.99,,,0.04,Acu-Link.com,2013-08-17 16:20:00,
2013-08-17 12:35:00,64.4,61.1,29.98,South,180,2.7,-999.0,89,-99.99,,,0.04,Acu-Link.com,2013-08-17 16:35:00,
2013-08-17 12:50:00,64.4,61.4,29.98,ESE,112,1.6,-999.0,90,-99.99,,,0.05,Acu-Link.com,2013-08-17 16:50:00,
2013-08-17 13:05:00,64.4,61.7,29.98,North,0,3.6,-999.0,91,-99.99,,,0.15,Acu-Link.com,2013-08-17 17:05:00,
2013-08-17 13:21:00,64.4,62.0,29.97,South,180,3.1,-999.0,92,-99.99,,,0.17,Acu-Link.com,2013-08-17 17:21:00,
2013-08-17 13:36:00,66.2,63.5,29.96,SSW,202,2.0,-999.0,91,-99.99,,,0.22,Acu-Link.com,2013-08-17 17:36:00,
2013-08-17 13:51:00,66.2,63.2,29.96,East,90,2.0,-999.0,90,-99.99,,,0.25,Acu-Link.com,2013-08-17 17:51:00,
2013-08-17 14:06:00,66.2,63.2,29.96,NE,45,3.6,-999.0,90,-99.99,,,0.26,Acu-Link.com,2013-08-17 18:06:00,
2013-08-17 14:21:00,68.0,65.0,29.96,East,90,2.0,-999.0,90,-99.99,,,0.26,Acu-Link.com,2013-08-17 18:21:00,
2013-08-17 14:37:00,66.2,63.2,29.95,North,0,3.6,-999.0,90,-99.99,,,0.27,Acu-Link.com,2013-08-17 18:37:00,
2013-08-17 14:52:00,68.0,65.0,29.94,East,90,3.6,-999.0,90,-99.99,,,0.27,Acu-Link.com,2013-08-17 18:52:00,
2013-08-17 15:07:00,68.0,64.6,29.94,East,90,1.6,-999.0,89,-99.99,,,0.28,Acu-Link.com,2013-08-17 19:07:00,
2013-08-17 15:22:00,68.0,65.0,29.93,NNE,22,5.6,-999.0,90,-99.99,,,0.28,Acu-Link.com,2013-08-17 19:22:00,
2013-08-17 15:37:00,66.2,63.2,29.94,North,0,2.7,-999.0,90,-99.99,,,0.57,Acu-Link.com,2013-08-17 19:37:00,
2013-08-17 15:53:00,68.0,65.3,29.94,NW,315,1.6,-999.0,91,-99.99,,,0.57,Acu-Link.com,2013-08-17 19:53:00,
2013-08-17 16:08:00,68.0,65.3,29.94,SE,135,2.7,-999.0,91,-99.99,,,0.57,Acu-Link.com,2013-08-17 20:08:00,
2013-08-17 16:23:00,66.2,63.8,29.93,WNW,292,1.6,-999.0,92,-99.99,,,0.58,Acu-Link.com,2013-08-17 20:23:00,
2013-08-17 16:39:00,66.2,63.8,29.92,West,270,2.0,-999.0,92,-99.99,,,0.58,Acu-Link.com,2013-08-17 20:39:00,
2013-08-17 16:54:00,64.4,62.0,29.93,West,270,2.7,-999.0,92,-99.99,,,0.65,Acu-Link.com,2013-08-17 20:54:00,
2013-08-17 17:09:00,64.4,62.6,29.93,ESE,112,2.7,-999.0,94,-99.99,,,0.82,Acu-Link.com,2013-08-17 21:09:00,
2013-08-17 17:24:00,64.4,62.6,29.93,West,270,1.6,-999.0,94,-99.99,,,0.99,Acu-Link.com,2013-08-17 21:24:00,
2013-08-17 17:39:00,64.4,62.6,29.93,NNE,22,3.1,-999.0,94,-99.99,,,1.12,Acu-Link.com,2013-08-17 21:39:00,
2013-08-17 17:54:00,64.4,62.6,29.93,NW,315,2.0,-999.0,94,-99.99,,,1.15,Acu-Link.com,2013-08-17 21:54:00,
2013-08-17 18:10:00,64.4,62.6,29.93,NE,45,1.6,-999.0,94,-99.99,,,1.17,Acu-Link.com,2013-08-17 22:10:00,
2013-08-17 18:25:00,64.4,62.6,29.93,NNE,22,3.1,-999.0,94,-99.99,,,1.18,Acu-Link.com,2013-08-17 22:25:00,
2013-08-17 18:40:00,64.4,62.6,29.92,NNW,337,2.0,-999.0,94,-99.99,,,1.18,Acu-Link.com,2013-08-17 22:40:00,
2013-08-17 18:55:00,64.4,62.6,29.93,North,0,2.7,-999.0,94,-99.99,,,1.18,Acu-Link.com,2013-08-17 22:55:00,
2013-08-17 19:11:00,64.4,62.6,29.93,NNW,337,1.6,-999.0,94,-99.99,,,1.18,Acu-Link.com,2013-08-17 23:11:00,
2013-08-17 19:26:00,64.4,62.9,29.93,NE,45,1.1,-999.0,95,-99.99,,,1.18,Acu-Link.com,2013-08-17 23:26:00,
2013-08-17 19:41:00,64.4,62.9,29.93,NNE,22,1.1,-999.0,95,-99.99,,,1.19,Acu-Link.com,2013-08-17 23:41:00,
2013-08-17 19:56:00,64.4,62.9,29.93,NE,45,2.0,-999.0,95,-99.99,,,1.20,Acu-Link.com,2013-08-17 23:56:00,
2013-08-17 20:11:00,64.4,62.9,29.93,North,0,0.0,-999.0,95,-99.99,,,1.20,Acu-Link.com,2013-08-18 00:11:00,
2013-08-17 20:26:00,64.4,62.9,29.94,WNW,292,1.1,-999.0,95,-99.99,,,1.22,Acu-Link.com,2013-08-18 00:26:00,
2013-08-17 20:42:00,64.4,63.2,29.94,North,0,2.7,-999.0,96,-99.99,,,1.24,Acu-Link.com,2013-08-18 00:42:00,
2013-08-17 20:57:00,64.4,63.2,29.94,NNW,337,2.0,-999.0,96,-99.99,,,1.25,Acu-Link.com,2013-08-18 00:57:00,
2013-08-17 21:12:00,64.4,63.2,29.94,SSE,157,2.7,-999.0,96,-99.99,,,1.30,Acu-Link.com,2013-08-18 01:12:00,
2013-08-17 21:27:00,62.6,61.4,29.94,NW,315,1.1,-999.0,96,-99.99,,,1.30,Acu-Link.com,2013-08-18 01:27:00,
2013-08-17 21:42:00,62.6,61.4,29.95,NNE,22,1.1,-999.0,96,-99.99,,,1.33,Acu-Link.com,2013-08-18 01:42:00,
2013-08-17 21:58:00,62.6,61.7,29.95,NW,315,0.0,-999.0,97,-99.99,,,1.39,Acu-Link.com,2013-08-18 01:58:00,
2013-08-17 22:13:00,62.6,61.7,29.95,West,270,0.0,-999.0,97,-99.99,,,1.40,Acu-Link.com,2013-08-18 02:13:00,
2013-08-17 22:28:00,62.6,61.7,29.95,South,180,0.0,-999.0,97,-99.99,,,1.40,Acu-Link.com,2013-08-18 02:28:00,
2013-08-17 22:43:00,62.6,62.0,29.95,NNW,337,2.0,-999.0,98,-99.99,,,1.40,Acu-Link.com,2013-08-18 02:43:00,
2013-08-17 22:58:00,62.6,62.0,29.94,North,0,1.1,-999.0,98,-99.99,,,1.41,Acu-Link.com,2013-08-18 02:58:00,
2013-08-17 23:13:00,62.6,62.3,29.95,SSE,157,2.0,-999.0,99,-99.99,,,1.41,Acu-Link.com,2013-08-18 03:13:00,
2013-08-17 23:29:00,64.4,64.1,29.95,SW,225,1.1,-999.0,99,-99.99,,,1.41,Acu-Link.com,2013-08-18 03:29:00,
2013-08-17 23:44:00,64.4,64.1,29.95,NNW,337,0.0,-999.0,99,-99.99,,,1.41,Acu-Link.com,2013-08-18 03:44:00,
2013-08-17 23:59:00,64.4,64.1,29.95,North,0,0.0,-999.0,99,-99.99,,,1.41,Acu-Link.com,2013-08-18 03:59:00,